createdAt,value
2018-12-03T00:01:42.300Z,37.90
2018-12-03T00:04:18.621Z,38.00
2018-12-03T00:06:46.522Z,38.10
2018-12-03T00:09:14.159Z,37.80
2018-12-03T00:11:41.848Z,37.80
2018-12-03T00:14:09.496Z,37.80
2018-12-03T00:16:37.082Z,37.80
2018-12-03T00:19:04.873Z,37.70
2018-12-03T00:21:32.534Z,37.70
2018-12-03T00:24:00.264Z,37.50
2018-12-03T00:26:27.975Z,37.80
2018-12-03T00:28:55.631Z,37.80
2018-12-03T00:31:23.189Z,37.60
2018-12-03T00:33:50.808Z,37.40
2018-12-03T00:36:18.397Z,37.60
2018-12-03T00:38:46.002Z,37.70
2018-12-03T00:41:13.662Z,37.70
2018-12-03T00:43:41.261Z,38.00
2018-12-03T00:46:08.836Z,37.40
2018-12-03T00:48:36.466Z,37.60
2018-12-03T00:51:04.088Z,37.50
2018-12-03T00:53:31.732Z,37.40
2018-12-03T00:55:59.896Z,37.10
2018-12-03T00:58:27.492Z,37.00
2018-12-03T01:00:55.053Z,37.90
2018-12-03T01:03:22.734Z,37.00
2018-12-03T01:05:50.292Z,36.70
2018-12-03T01:08:17.882Z,37.50
2018-12-03T01:10:45.554Z,36.80
2018-12-03T01:13:13.159Z,37.00
2018-12-03T01:15:40.879Z,37.10
2018-12-03T01:18:08.458Z,36.90
2018-12-03T01:20:36.120Z,37.00
2018-12-03T01:23:03.683Z,36.90
2018-12-03T01:25:31.328Z,36.80
2018-12-03T01:27:58.925Z,36.90
2018-12-03T01:30:26.623Z,36.90
2018-12-03T01:32:54.152Z,36.80
2018-12-03T01:35:21.735Z,36.90
2018-12-03T01:37:49.344Z,36.80
2018-12-03T01:40:16.996Z,36.70
2018-12-03T01:42:44.572Z,36.60
2018-12-03T01:45:12.742Z,36.50
2018-12-03T01:47:40.405Z,36.70
2018-12-03T01:50:09.670Z,36.70
2018-12-03T01:52:37.264Z,36.60
2018-12-03T01:55:05.437Z,36.70
2018-12-03T01:57:33.082Z,36.40
2018-12-03T02:00:00.744Z,36.80
2018-12-03T02:02:28.324Z,37.10
2018-12-03T02:04:55.948Z,37.40
2018-12-03T02:07:23.560Z,36.80
2018-12-03T02:09:51.146Z,37.40
2018-12-03T02:12:18.816Z,36.80
2018-12-03T02:14:46.386Z,36.90
2018-12-03T02:17:14.068Z,36.80
2018-12-03T02:19:41.685Z,36.90
2018-12-03T02:22:09.339Z,36.90
2018-12-03T02:24:36.987Z,36.90
2018-12-03T02:27:05.028Z,36.70
2018-12-03T02:29:32.622Z,36.80
2018-12-03T02:32:00.198Z,36.80
2018-12-03T02:34:27.818Z,36.80
2018-12-03T02:36:55.394Z,36.90
2018-12-03T02:39:22.973Z,37.00
2018-12-03T02:41:50.629Z,36.80
2018-12-03T02:44:18.201Z,36.80
2018-12-03T02:46:45.907Z,36.80
2018-12-03T02:49:13.442Z,36.80
2018-12-03T02:51:41.036Z,36.90
2018-12-03T02:54:08.663Z,36.70
2018-12-03T02:56:36.282Z,36.80
2018-12-03T02:59:03.896Z,37.30
2018-12-03T03:01:31.558Z,36.90
2018-12-03T03:03:59.125Z,37.00
2018-12-03T03:06:26.744Z,36.80
2018-12-03T03:08:54.400Z,37.20
2018-12-03T03:11:21.971Z,36.80
2018-12-03T03:13:49.554Z,37.00
2018-12-03T03:16:17.310Z,37.00
2018-12-03T03:18:44.939Z,36.70
2018-12-03T03:21:12.525Z,36.80
2018-12-03T03:23:40.158Z,37.00
2018-12-03T03:26:07.753Z,36.90
2018-12-03T03:28:35.351Z,36.60
2018-12-03T03:31:02.989Z,36.80
2018-12-03T03:33:30.569Z,36.70
2018-12-03T03:35:58.148Z,36.70
2018-12-03T03:38:25.780Z,36.80
2018-12-03T03:40:53.386Z,36.60
2018-12-03T03:43:20.963Z,36.40
2018-12-03T03:45:48.580Z,36.70
2018-12-03T03:48:16.178Z,36.30
2018-12-03T03:50:43.744Z,36.60
2018-12-03T03:53:11.383Z,36.30
2018-12-03T03:55:39.004Z,36.80
2018-12-03T03:58:06.585Z,36.40
2018-12-03T04:00:34.314Z,37.10
2018-12-03T04:03:01.884Z,36.20
2018-12-03T04:05:29.454Z,36.30
2018-12-03T04:07:57.058Z,36.50
2018-12-03T04:10:24.633Z,36.70
2018-12-03T04:12:52.280Z,36.40
2018-12-03T04:15:20.068Z,36.30
2018-12-03T04:17:47.694Z,36.20
2018-12-03T04:20:15.888Z,36.20
2018-12-03T04:22:44.275Z,36.40
2018-12-03T04:25:12.044Z,36.50
2018-12-03T04:27:39.648Z,36.60
2018-12-03T04:30:09.392Z,36.50
2018-12-03T04:32:37.035Z,36.70
2018-12-03T04:35:05.122Z,36.50
2018-12-03T04:37:32.778Z,36.40
2018-12-03T04:42:34.525Z,36.50
2018-12-03T04:45:02.115Z,36.50
2018-12-03T04:47:29.663Z,36.60
2018-12-03T04:49:57.336Z,36.50
2018-12-03T04:52:24.955Z,36.40
2018-12-03T04:54:52.481Z,36.40
2018-12-03T04:57:20.078Z,36.50
2018-12-03T04:59:47.611Z,36.60
2018-12-03T05:02:15.216Z,37.00
2018-12-03T05:04:42.880Z,36.50
2018-12-03T05:07:10.449Z,36.90
2018-12-03T05:09:38.177Z,36.50
2018-12-03T05:12:05.912Z,36.50
2018-12-03T05:14:33.503Z,36.60
2018-12-03T05:17:01.173Z,36.40
2018-12-03T05:19:28.742Z,36.50
2018-12-03T05:21:56.313Z,36.50
2018-12-03T05:24:23.939Z,36.50
2018-12-03T05:26:51.505Z,36.40
2018-12-03T05:29:19.143Z,37.10
2018-12-03T05:31:46.783Z,36.50
2018-12-03T05:34:14.397Z,36.30
2018-12-03T05:36:41.982Z,36.30
2018-12-03T05:39:09.891Z,36.30
2018-12-03T05:41:37.496Z,36.30
2018-12-03T05:44:05.135Z,36.30
2018-12-03T05:46:32.749Z,36.20
2018-12-03T05:49:00.296Z,36.90
2018-12-03T05:51:27.959Z,36.20
2018-12-03T05:53:55.578Z,36.50
2018-12-03T05:56:23.154Z,36.40
2018-12-03T05:58:50.761Z,36.40
2018-12-03T06:01:18.380Z,36.70
2018-12-03T06:03:45.966Z,36.40
2018-12-03T06:06:13.682Z,36.20
2018-12-03T06:08:41.244Z,36.10
2018-12-03T06:11:08.812Z,36.50
2018-12-03T06:13:36.446Z,36.20
2018-12-03T06:16:04.023Z,36.20
2018-12-03T06:18:31.600Z,36.00
2018-12-03T06:20:59.291Z,36.70
2018-12-03T06:23:26.862Z,36.30
2018-12-03T06:25:54.730Z,36.50
2018-12-03T06:28:22.379Z,37.10
2018-12-03T06:30:49.990Z,37.10
2018-12-03T06:33:17.558Z,37.30
2018-12-03T06:35:45.160Z,38.00
2018-12-03T06:38:15.381Z,38.30
2018-12-03T06:40:40.478Z,38.50
2018-12-03T06:43:08.046Z,38.80
2018-12-03T06:45:35.623Z,38.20
2018-12-03T06:48:08.237Z,39.20
2018-12-03T06:50:35.838Z,38.80
2018-12-03T06:53:03.447Z,38.90
2018-12-03T06:55:31.065Z,38.70
2018-12-03T06:57:58.754Z,39.90
2018-12-03T07:00:26.352Z,39.90
2018-12-03T07:02:53.914Z,39.90
2018-12-03T07:05:21.520Z,39.90
2018-12-03T07:07:49.986Z,38.60
2018-12-03T07:10:18.195Z,35.30
2018-12-03T07:12:46.463Z,35.40
2018-12-03T07:15:15.015Z,36.30
2018-12-03T07:17:42.574Z,36.20
2018-12-03T07:20:10.767Z,36.90
2018-12-03T07:22:38.553Z,37.00
2018-12-03T07:25:07.001Z,38.10
2018-12-03T07:27:34.863Z,38.10
2018-12-03T07:30:02.525Z,37.90
2018-12-03T07:32:30.171Z,37.80
2018-12-03T07:34:57.945Z,37.70
2018-12-03T07:37:25.522Z,37.70
2018-12-03T07:39:53.135Z,37.70
2018-12-03T07:42:20.783Z,37.70
2018-12-03T07:44:48.352Z,38.40
2018-12-03T07:47:15.995Z,37.60
2018-12-03T07:49:43.628Z,37.50
2018-12-03T07:52:11.287Z,37.50
2018-12-03T07:54:38.854Z,37.40
2018-12-03T07:57:06.468Z,37.40
2018-12-03T07:59:34.161Z,37.30
2018-12-03T08:02:01.660Z,37.30
2018-12-03T08:04:29.288Z,37.20
2018-12-03T08:06:56.933Z,37.20
2018-12-03T08:09:24.530Z,37.20
2018-12-03T08:11:52.111Z,37.10
2018-12-03T08:14:19.917Z,37.20
2018-12-03T08:16:47.623Z,37.10
2018-12-03T08:19:15.237Z,37.10
2018-12-03T08:21:42.854Z,37.10
2018-12-03T08:24:11.542Z,37.40
2018-12-03T08:26:39.119Z,37.70
2018-12-03T08:29:06.746Z,38.10
2018-12-03T08:31:34.306Z,37.80
2018-12-03T08:34:01.896Z,38.10
2018-12-03T08:36:29.526Z,38.20
2018-12-03T08:38:57.112Z,38.40
2018-12-03T08:41:24.791Z,39.80
2018-12-03T08:43:52.409Z,39.70
2018-12-03T08:46:20.084Z,40.70
2018-12-03T08:48:47.689Z,40.80
2018-12-03T08:51:15.332Z,40.10
2018-12-03T08:53:45.030Z,39.20
2018-12-03T08:56:12.657Z,38.10
2018-12-03T08:58:40.316Z,38.70
2018-12-03T09:01:15.597Z,38.80
2018-12-03T09:03:44.360Z,38.30
2018-12-03T09:06:12.696Z,38.50
2018-12-03T09:08:40.482Z,38.60
2018-12-03T09:11:09.408Z,41.50
2018-12-03T09:13:37.002Z,43.20
2018-12-03T09:16:04.574Z,43.40
2018-12-03T09:18:32.960Z,41.70
2018-12-03T09:21:00.647Z,42.10
2018-12-03T09:23:28.216Z,42.80
2018-12-03T09:25:55.853Z,42.30
2018-12-03T09:28:23.455Z,41.10
2018-12-03T09:30:51.062Z,40.70
2018-12-03T09:33:19.271Z,40.30
2018-12-03T09:35:47.864Z,40.70
2018-12-03T09:38:15.478Z,40.00
2018-12-03T09:40:43.100Z,40.30
2018-12-03T09:43:10.703Z,39.60
2018-12-03T09:45:38.306Z,40.20
2018-12-03T09:48:05.981Z,39.20
2018-12-03T09:50:33.720Z,39.20
2018-12-03T09:53:01.446Z,39.20
2018-12-03T09:55:29.727Z,39.20
2018-12-03T09:58:01.103Z,39.20
2018-12-03T10:00:28.663Z,39.30
2018-12-03T10:02:56.903Z,39.30
2018-12-03T10:05:27.562Z,39.40
2018-12-03T10:07:55.162Z,39.40
2018-12-03T10:10:22.859Z,39.50
2018-12-03T10:12:50.497Z,39.50
2018-12-03T10:15:18.045Z,39.50
2018-12-03T10:17:48.437Z,39.60
2018-12-03T10:20:16.071Z,40.30
2018-12-03T10:22:47.415Z,39.60
2018-12-03T10:25:15.047Z,39.60
2018-12-03T10:27:42.615Z,39.60
2018-12-03T10:30:17.036Z,39.60
2018-12-03T10:32:45.350Z,39.60
2018-12-03T10:35:12.970Z,39.70
2018-12-03T10:37:40.698Z,39.70
2018-12-03T10:40:10.686Z,39.70
2018-12-03T10:42:38.291Z,39.80
2018-12-03T10:45:06.523Z,39.70
2018-12-03T10:47:34.135Z,39.10
2018-12-03T10:50:01.845Z,39.00
2018-12-03T10:52:29.441Z,38.80
2018-12-03T10:54:57.013Z,38.80
2018-12-03T10:57:24.640Z,38.60
2018-12-03T10:59:53.436Z,39.10
2018-12-03T11:02:32.253Z,39.30
2018-12-03T11:05:05.413Z,38.60
2018-12-03T11:07:33.012Z,38.80
2018-12-03T11:10:00.623Z,38.80
2018-12-03T11:12:28.227Z,55.30
2018-12-03T11:14:55.858Z,46.80
2018-12-03T11:17:23.458Z,44.60
2018-12-03T11:19:51.119Z,42.40
2018-12-03T11:22:21.134Z,40.80
2018-12-03T11:24:48.939Z,40.80
2018-12-03T11:27:17.196Z,40.70
2018-12-03T11:29:44.741Z,40.70
2018-12-03T11:32:16.844Z,40.70
2018-12-03T11:34:44.377Z,40.60
2018-12-03T11:37:13.668Z,39.90
2018-12-03T11:39:48.368Z,39.50
2018-12-03T11:42:15.930Z,39.60
2018-12-03T11:44:43.526Z,39.70
2018-12-03T11:47:11.268Z,40.40
2018-12-03T11:49:38.843Z,40.40
2018-12-03T11:52:06.535Z,40.40
2018-12-03T11:54:34.153Z,40.30
2018-12-03T11:57:01.738Z,40.30
2018-12-03T11:59:29.323Z,40.30
2018-12-03T12:01:56.952Z,40.20
2018-12-03T12:04:24.563Z,40.20
2018-12-03T12:06:52.158Z,40.10
2018-12-03T12:09:21.113Z,40.10
2018-12-03T12:11:47.361Z,40.10
2018-12-03T12:14:20.021Z,40.00
2018-12-03T12:16:47.543Z,40.00
2018-12-03T12:19:15.170Z,40.00
2018-12-03T12:21:42.806Z,40.30
2018-12-03T12:24:10.362Z,39.90
2018-12-03T12:26:38.196Z,39.90
2018-12-03T12:29:07.194Z,39.90
2018-12-03T12:31:34.794Z,39.90
2018-12-03T12:34:02.454Z,39.90
2018-12-03T12:36:30.143Z,39.90
2018-12-03T12:38:57.797Z,39.90
2018-12-03T12:41:25.467Z,39.90
2018-12-03T12:43:53.150Z,39.90
2018-12-03T12:46:22.430Z,39.80
2018-12-03T12:48:49.980Z,39.90
2018-12-03T12:51:17.556Z,39.80
2018-12-03T12:53:45.210Z,39.80
2018-12-03T12:56:12.832Z,39.80
2018-12-03T12:58:40.378Z,39.80
2018-12-03T13:01:08.182Z,39.80
2018-12-03T13:03:35.819Z,39.80
2018-12-03T13:06:03.374Z,39.80
2018-12-03T13:08:31.001Z,39.80
2018-12-03T13:10:58.603Z,39.80
2018-12-03T13:13:26.219Z,39.80
2018-12-03T13:15:53.936Z,39.80
2018-12-03T13:18:21.546Z,39.80
2018-12-03T13:20:49.314Z,39.80
2018-12-03T13:23:17.086Z,39.80
2018-12-03T13:25:44.669Z,39.70
2018-12-03T13:28:12.442Z,39.70
2018-12-03T13:30:40.118Z,39.80
2018-12-03T13:33:07.723Z,39.80
2018-12-03T13:35:35.378Z,39.90
2018-12-03T13:38:03.009Z,43.80
2018-12-03T13:40:30.787Z,40.60
2018-12-03T13:42:58.441Z,40.00
2018-12-03T13:45:26.683Z,40.20
2018-12-03T13:47:55.147Z,40.30
2018-12-03T13:50:22.756Z,39.30
2018-12-03T13:52:50.336Z,39.20
2018-12-03T13:55:18.553Z,39.50
2018-12-03T13:57:46.181Z,39.60
2018-12-03T14:00:15.591Z,39.60
2018-12-03T14:02:43.856Z,39.70
2018-12-03T14:05:12.241Z,39.20
2018-12-03T14:07:43.115Z,39.00
2018-12-03T14:10:20.515Z,39.00
2018-12-03T14:13:26.203Z,38.40
2018-12-03T14:18:03.055Z,39.60
2018-12-03T14:20:32.357Z,40.00
2018-12-03T14:23:01.716Z,39.70
2018-12-03T14:25:29.301Z,39.20
2018-12-03T14:27:56.908Z,38.70
2018-12-03T14:30:24.725Z,38.50
2018-12-03T14:32:52.348Z,38.20
2018-12-03T14:35:19.936Z,38.30
2018-12-03T14:37:47.551Z,38.10
2018-12-03T14:40:15.165Z,39.00
2018-12-03T14:42:42.818Z,40.00
2018-12-03T14:45:11.092Z,39.60
2018-12-03T14:47:38.654Z,38.60
2018-12-03T14:50:07.467Z,40.00
2018-12-03T14:52:35.150Z,38.10
2018-12-03T14:55:02.960Z,38.40
2018-12-03T14:57:30.621Z,38.80
2018-12-03T14:59:58.251Z,39.50
2018-12-03T15:02:25.785Z,38.90
2018-12-03T15:04:53.410Z,38.50
2018-12-03T15:07:21.114Z,38.50
2018-12-03T15:09:48.839Z,38.10
2018-12-03T15:12:16.428Z,37.80
2018-12-03T15:14:44.085Z,38.10
2018-12-03T15:17:11.679Z,37.30
2018-12-03T15:19:39.325Z,37.40
2018-12-03T15:22:06.902Z,37.00
2018-12-03T15:24:34.627Z,36.70
2018-12-03T15:27:02.275Z,36.60
2018-12-03T15:29:29.935Z,36.40
2018-12-03T15:31:57.719Z,36.40
2018-12-03T15:34:25.321Z,36.50
2018-12-03T15:36:52.927Z,36.50
2018-12-03T15:39:20.523Z,36.40
2018-12-03T15:41:48.327Z,36.40
2018-12-03T15:44:15.955Z,36.40
2018-12-03T15:46:43.589Z,36.40
2018-12-03T15:49:11.153Z,36.40
2018-12-03T15:51:38.793Z,36.20
2018-12-03T15:54:06.416Z,36.10
2018-12-03T15:56:33.999Z,36.00
2018-12-03T15:59:01.631Z,36.00
2018-12-03T16:01:29.201Z,35.90
2018-12-03T16:03:56.783Z,35.80
2018-12-03T16:06:25.183Z,35.90
2018-12-03T16:08:52.735Z,36.90
2018-12-03T16:11:20.411Z,40.30
2018-12-03T16:13:48.018Z,43.40
2018-12-03T16:16:16.044Z,40.40
2018-12-03T16:18:43.860Z,39.60
2018-12-03T16:21:11.859Z,40.50
2018-12-03T16:23:39.528Z,46.30
2018-12-03T16:26:07.364Z,48.80
2018-12-03T16:28:35.243Z,48.50
2018-12-03T16:31:03.017Z,52.10
2018-12-03T16:33:31.294Z,55.10
2018-12-03T16:35:58.927Z,59.90
2018-12-03T16:38:27.828Z,58.90
2018-12-03T16:40:55.850Z,63.40
2018-12-03T16:43:24.224Z,62.60
2018-12-03T16:45:51.933Z,59.80
2018-12-03T16:48:20.750Z,60.80
2018-12-03T16:50:49.513Z,58.80
2018-12-03T16:53:17.834Z,55.30
2018-12-03T16:55:46.180Z,53.20
2018-12-03T16:58:14.524Z,53.00
2018-12-03T17:00:42.160Z,51.90
2018-12-03T17:03:10.592Z,50.70
2018-12-03T17:05:38.316Z,49.60
2018-12-03T17:08:06.702Z,49.20
2018-12-03T17:10:34.274Z,48.80
2018-12-03T17:13:01.940Z,48.50
2018-12-03T17:15:29.540Z,48.30
2018-12-03T17:17:57.144Z,48.40
2018-12-03T17:20:28.486Z,47.80
2018-12-03T17:22:58.963Z,47.50
2018-12-03T17:25:26.976Z,47.30
2018-12-03T17:27:56.984Z,48.10
2018-12-03T17:30:24.598Z,49.70
2018-12-03T17:32:52.298Z,49.40
2018-12-03T17:35:20.195Z,49.50
2018-12-03T17:37:47.782Z,48.20
2018-12-03T17:40:15.380Z,47.90
2018-12-03T17:42:43.020Z,46.40
2018-12-03T17:45:11.350Z,38.60
2018-12-03T17:47:39.013Z,40.30
2018-12-03T17:50:06.703Z,43.70
2018-12-03T17:52:34.491Z,42.90
2018-12-03T17:55:02.101Z,41.70
2018-12-03T17:57:29.755Z,41.50
2018-12-03T17:59:58.114Z,40.70
2018-12-03T18:02:25.753Z,40.20
2018-12-03T18:04:53.539Z,40.20
2018-12-03T18:07:21.853Z,40.20
2018-12-03T18:09:50.413Z,40.20
2018-12-03T18:12:18.055Z,40.20
2018-12-03T18:14:45.650Z,40.20
2018-12-03T18:17:13.347Z,40.30
2018-12-03T18:19:40.958Z,39.20
2018-12-03T18:22:08.591Z,37.40
2018-12-03T18:24:36.781Z,37.10
2018-12-03T18:27:29.683Z,36.50
2018-12-03T18:29:56.702Z,35.60
2018-12-03T18:32:23.734Z,34.40
2018-12-03T18:34:50.790Z,34.10
2018-12-03T18:37:17.791Z,36.80
2018-12-03T18:39:44.813Z,36.30
2018-12-03T18:42:12.036Z,36.30
2018-12-03T18:44:39.184Z,36.30
2018-12-03T18:47:06.335Z,36.30
2018-12-03T18:49:33.384Z,36.20
2018-12-03T18:52:00.412Z,36.30
2018-12-03T18:54:27.514Z,36.20
2018-12-03T18:56:54.601Z,36.40
2018-12-03T18:59:21.614Z,36.60
2018-12-03T19:01:48.827Z,36.70
2018-12-03T19:04:15.859Z,36.80
2018-12-03T19:06:43.012Z,36.90
2018-12-03T19:09:10.132Z,37.00
2018-12-03T19:11:37.235Z,37.10
2018-12-03T19:14:04.342Z,38.00
2018-12-03T19:16:31.429Z,37.40
2018-12-03T19:18:58.494Z,37.60
2018-12-03T19:21:25.546Z,37.60
2018-12-03T19:23:52.637Z,37.60
2018-12-03T19:26:19.699Z,37.80
2018-12-03T19:28:46.698Z,38.10
2018-12-03T19:31:13.798Z,37.90
2018-12-03T19:33:40.860Z,37.90
2018-12-03T19:36:07.898Z,38.00
2018-12-03T19:38:34.909Z,38.30
2018-12-03T19:41:01.957Z,38.70
2018-12-03T19:43:29.123Z,39.20
2018-12-03T19:45:56.125Z,38.70
2018-12-03T19:48:23.232Z,38.70
2018-12-03T19:50:51.000Z,38.70
2018-12-03T19:53:18.130Z,38.80
2018-12-03T19:55:45.144Z,39.00
2018-12-03T19:58:12.206Z,39.20
2018-12-03T20:00:39.708Z,39.70
2018-12-03T20:03:07.215Z,39.30
2018-12-03T20:05:34.301Z,39.20
2018-12-03T20:08:01.354Z,39.70
2018-12-03T20:10:28.833Z,39.30
2018-12-03T20:12:55.862Z,39.40
2018-12-03T20:15:22.972Z,39.50
2018-12-03T20:17:50.026Z,39.50
2018-12-03T20:20:17.514Z,39.60
2018-12-03T20:22:45.136Z,39.60
2018-12-03T20:25:13.292Z,40.10
2018-12-03T20:27:40.994Z,40.90
2018-12-03T20:30:12.392Z,40.30
2018-12-03T20:32:40.156Z,40.10
2018-12-03T20:35:07.817Z,40.30
2018-12-03T20:37:36.221Z,40.30
2018-12-03T20:40:08.485Z,40.30
2018-12-03T20:42:36.357Z,40.30
2018-12-03T20:45:07.822Z,40.30
2018-12-03T20:47:35.708Z,40.90
2018-12-03T20:50:06.271Z,40.40
2018-12-03T20:52:33.744Z,40.30
2018-12-03T20:55:01.196Z,40.30
2018-12-03T20:57:28.787Z,40.30
2018-12-03T20:59:56.298Z,40.30
2018-12-03T21:02:23.806Z,40.30
2018-12-03T21:04:51.285Z,40.30
2018-12-03T21:07:18.789Z,40.30
2018-12-03T21:09:46.263Z,40.40
2018-12-03T21:12:13.411Z,37.30
2018-12-03T21:14:40.408Z,34.10
2018-12-03T21:17:07.591Z,35.20
2018-12-03T21:19:35.177Z,34.90
2018-12-03T21:22:02.775Z,35.50
2018-12-03T21:24:30.237Z,38.00
2018-12-03T21:26:57.774Z,37.60
2018-12-03T21:29:25.233Z,37.40
2018-12-03T21:31:52.695Z,37.20
2018-12-03T21:34:20.261Z,37.10
2018-12-03T21:36:47.839Z,37.00
2018-12-03T21:39:15.350Z,36.80
2018-12-03T21:41:42.886Z,36.80
2018-12-03T21:44:10.371Z,36.80
2018-12-03T21:46:38.335Z,36.80
2018-12-03T21:49:05.840Z,37.90
2018-12-03T21:51:33.321Z,37.10
2018-12-03T21:54:00.763Z,38.00
2018-12-03T21:56:28.269Z,36.50
2018-12-03T21:58:55.750Z,36.50
2018-12-03T22:01:23.251Z,36.40
2018-12-03T22:03:50.770Z,36.50
2018-12-03T22:06:18.231Z,36.50
2018-12-03T22:08:45.871Z,36.40
2018-12-03T22:11:13.347Z,36.30
2018-12-03T22:13:40.847Z,36.30
2018-12-03T22:16:08.339Z,36.30
2018-12-03T22:18:35.893Z,36.50
2018-12-03T22:21:03.419Z,36.10
2018-12-03T22:23:30.904Z,36.80
2018-12-03T22:25:58.449Z,37.00
2018-12-03T22:28:26.023Z,37.00
2018-12-03T22:30:53.482Z,37.30
2018-12-03T22:33:21.025Z,36.80
2018-12-03T22:35:48.181Z,37.10
2018-12-03T22:38:15.178Z,37.10
2018-12-03T22:40:42.247Z,37.20
2018-12-03T22:43:09.336Z,36.60
2018-12-03T22:45:36.359Z,37.10
2018-12-03T22:48:03.443Z,36.00
2018-12-03T22:50:30.467Z,36.10
2018-12-03T22:52:57.653Z,36.00
2018-12-03T22:55:24.717Z,36.00
2018-12-03T22:57:52.259Z,38.00
2018-12-03T23:00:25.117Z,36.90
2018-12-03T23:02:52.166Z,36.80
2018-12-03T23:05:19.181Z,37.10
2018-12-03T23:07:46.249Z,37.40
2018-12-03T23:10:13.706Z,37.50
2018-12-03T23:12:41.291Z,36.90
2018-12-03T23:15:08.357Z,36.50
2018-12-03T23:17:35.353Z,36.30
2018-12-03T23:20:02.527Z,35.80
2018-12-03T23:22:29.559Z,36.00
2018-12-03T23:24:56.606Z,35.50
2018-12-03T23:27:23.719Z,35.30
2018-12-03T23:29:50.739Z,35.10
2018-12-03T23:32:18.109Z,35.20
2018-12-03T23:34:45.166Z,34.90
2018-12-03T23:37:12.177Z,34.80
2018-12-03T23:39:39.258Z,35.30
2018-12-03T23:42:06.325Z,35.50
2018-12-03T23:44:33.431Z,35.60
2018-12-03T23:47:00.491Z,35.50
2018-12-03T23:49:27.526Z,35.50
2018-12-03T23:51:54.562Z,35.50
2018-12-03T23:54:21.706Z,35.50
2018-12-03T23:56:48.725Z,35.50
2018-12-03T23:59:15.700Z,35.50
